sensor_id;sensor_type;location;lat;lon;timestamp;P1;durP1;ratioP1;P2;durP2;ratioP2
75760;SDS011;64373;46.136;8.830;2023-08-24T00:00:49;4.93;;;3.63;;
75760;SDS011;64373;46.136;8.830;2023-08-24T00:03:15;6.82;;;4.60;;
75760;SDS011;64373;46.136;8.830;2023-08-24T00:05:40;5.45;;;4.57;;
75760;SDS011;64373;46.136;8.830;2023-08-24T00:08:07;4.30;;;3.47;;
75760;SDS011;64373;46.136;8.830;2023-08-24T00:10:33;6.13;;;4.22;;
75760;SDS011;64373;46.136;8.830;2023-08-24T00:12:59;5.95;;;4.10;;
75760;SDS011;64373;46.136;8.830;2023-08-24T00:15:25;5.65;;;4.28;;
75760;SDS011;64373;46.136;8.830;2023-08-24T00:17:51;4.82;;;4.25;;
75760;SDS011;64373;46.136;8.830;2023-08-24T00:20:16;5.47;;;3.85;;
75760;SDS011;64373;46.136;8.830;2023-08-24T00:22:42;5.40;;;4.38;;
75760;SDS011;64373;46.136;8.830;2023-08-24T00:25:08;6.68;;;4.35;;
75760;SDS011;64373;46.136;8.830;2023-08-24T00:27:34;7.18;;;4.88;;
75760;SDS011;64373;46.136;8.830;2023-08-24T00:30:02;6.40;;;4.28;;
75760;SDS011;64373;46.136;8.830;2023-08-24T00:32:29;7.22;;;4.95;;
75760;SDS011;64373;46.136;8.830;2023-08-24T00:34:55;9.68;;;6.03;;
75760;SDS011;64373;46.136;8.830;2023-08-24T00:37:21;6.07;;;4.28;;
75760;SDS011;64373;46.136;8.830;2023-08-24T00:39:46;7.15;;;4.57;;
75760;SDS011;64373;46.136;8.830;2023-08-24T00:42:12;5.82;;;4.22;;
75760;SDS011;64373;46.136;8.830;2023-08-24T00:44:40;5.45;;;3.90;;
75760;SDS011;64373;46.136;8.830;2023-08-24T00:47:06;5.35;;;4.68;;
75760;SDS011;64373;46.136;8.830;2023-08-24T00:49:33;5.95;;;4.20;;
75760;SDS011;64373;46.136;8.830;2023-08-24T00:51:59;5.82;;;3.60;;
75760;SDS011;64373;46.136;8.830;2023-08-24T00:54:25;3.55;;;3.20;;
75760;SDS011;64373;46.136;8.830;2023-08-24T00:56:51;4.53;;;3.42;;
75760;SDS011;64373;46.136;8.830;2023-08-24T00:59:18;8.32;;;4.97;;
75760;SDS011;64373;46.136;8.830;2023-08-24T01:01:44;6.93;;;4.93;;
75760;SDS011;64373;46.136;8.830;2023-08-24T01:04:10;5.10;;;3.90;;
75760;SDS011;64373;46.136;8.830;2023-08-24T01:06:36;5.75;;;3.53;;
75760;SDS011;64373;46.136;8.830;2023-08-24T01:09:02;6.53;;;4.68;;
75760;SDS011;64373;46.136;8.830;2023-08-24T01:14:42;8.70;;;4.75;;
75760;SDS011;64373;46.136;8.830;2023-08-24T01:17:36;6.00;;;4.35;;
75760;SDS011;64373;46.136;8.830;2023-08-24T01:20:04;6.60;;;3.85;;
75760;SDS011;64373;46.136;8.830;2023-08-24T01:25:07;4.57;;;3.83;;
75760;SDS011;64373;46.136;8.830;2023-08-24T01:27:37;5.60;;;3.38;;
75760;SDS011;64373;46.136;8.830;2023-08-24T01:30:04;5.72;;;3.78;;
75760;SDS011;64373;46.136;8.830;2023-08-24T01:32:31;5.35;;;4.10;;
75760;SDS011;64373;46.136;8.830;2023-08-24T01:34:58;7.68;;;4.45;;
75760;SDS011;64373;46.136;8.830;2023-08-24T01:37:24;4.53;;;3.50;;
75760;SDS011;64373;46.136;8.830;2023-08-24T01:39:50;5.53;;;3.30;;
75760;SDS011;64373;46.136;8.830;2023-08-24T01:42:35;5.35;;;3.90;;
75760;SDS011;64373;46.136;8.830;2023-08-24T01:45:05;6.45;;;3.90;;
75760;SDS011;64373;46.136;8.830;2023-08-24T01:47:33;6.43;;;4.47;;
75760;SDS011;64373;46.136;8.830;2023-08-24T01:49:59;4.82;;;4.15;;
75760;SDS011;64373;46.136;8.830;2023-08-24T01:52:25;9.25;;;4.20;;
75760;SDS011;64373;46.136;8.830;2023-08-24T01:54:51;7.88;;;4.13;;
75760;SDS011;64373;46.136;8.830;2023-08-24T01:57:16;7.65;;;3.58;;
75760;SDS011;64373;46.136;8.830;2023-08-24T01:59:42;5.53;;;4.07;;
75760;SDS011;64373;46.136;8.830;2023-08-24T02:02:07;4.72;;;3.10;;
75760;SDS011;64373;46.136;8.830;2023-08-24T02:04:33;5.30;;;4.03;;
75760;SDS011;64373;46.136;8.830;2023-08-24T02:06:58;8.07;;;5.13;;
75760;SDS011;64373;46.136;8.830;2023-08-24T02:09:24;5.03;;;4.05;;
75760;SDS011;64373;46.136;8.830;2023-08-24T02:11:50;4.63;;;3.35;;
75760;SDS011;64373;46.136;8.830;2023-08-24T02:14:15;6.05;;;4.20;;
75760;SDS011;64373;46.136;8.830;2023-08-24T02:16:40;7.35;;;3.90;;
75760;SDS011;64373;46.136;8.830;2023-08-24T02:19:06;5.72;;;3.58;;
75760;SDS011;64373;46.136;8.830;2023-08-24T02:21:31;7.25;;;4.28;;
75760;SDS011;64373;46.136;8.830;2023-08-24T02:23:58;5.95;;;3.97;;
75760;SDS011;64373;46.136;8.830;2023-08-24T02:26:24;5.93;;;4.25;;
75760;SDS011;64373;46.136;8.830;2023-08-24T02:28:49;6.80;;;4.00;;
75760;SDS011;64373;46.136;8.830;2023-08-24T02:31:15;5.93;;;3.78;;
75760;SDS011;64373;46.136;8.830;2023-08-24T02:33:41;6.50;;;3.72;;
75760;SDS011;64373;46.136;8.830;2023-08-24T02:36:06;6.72;;;4.78;;
75760;SDS011;64373;46.136;8.830;2023-08-24T02:38:32;4.93;;;3.63;;
75760;SDS011;64373;46.136;8.830;2023-08-24T02:41:01;6.70;;;3.65;;
75760;SDS011;64373;46.136;8.830;2023-08-24T02:43:31;6.90;;;3.75;;
75760;SDS011;64373;46.136;8.830;2023-08-24T02:46:08;7.60;;;4.28;;
75760;SDS011;64373;46.136;8.830;2023-08-24T02:48:37;7.13;;;4.18;;
75760;SDS011;64373;46.136;8.830;2023-08-24T02:51:04;4.85;;;3.78;;
75760;SDS011;64373;46.136;8.830;2023-08-24T02:53:30;8.02;;;4.25;;
75760;SDS011;64373;46.136;8.830;2023-08-24T02:55:55;4.60;;;3.17;;
75760;SDS011;64373;46.136;8.830;2023-08-24T02:58:22;4.35;;;3.20;;
75760;SDS011;64373;46.136;8.830;2023-08-24T03:00:47;4.35;;;3.00;;
75760;SDS011;64373;46.136;8.830;2023-08-24T03:03:13;5.38;;;3.47;;
75760;SDS011;64373;46.136;8.830;2023-08-24T03:05:40;8.20;;;3.92;;
75760;SDS011;64373;46.136;8.830;2023-08-24T03:08:05;4.18;;;2.90;;
75760;SDS011;64373;46.136;8.830;2023-08-24T03:10:34;9.02;;;3.47;;
75760;SDS011;64373;46.136;8.830;2023-08-24T03:13:00;5.38;;;3.42;;
75760;SDS011;64373;46.136;8.830;2023-08-24T03:15:25;5.00;;;3.00;;
75760;SDS011;64373;46.136;8.830;2023-08-24T03:17:51;4.63;;;2.70;;
75760;SDS011;64373;46.136;8.830;2023-08-24T03:20:17;6.15;;;4.00;;
75760;SDS011;64373;46.136;8.830;2023-08-24T03:22:44;7.82;;;4.10;;
75760;SDS011;64373;46.136;8.830;2023-08-24T03:25:09;6.95;;;3.78;;
75760;SDS011;64373;46.136;8.830;2023-08-24T03:27:35;4.63;;;2.78;;
75760;SDS011;64373;46.136;8.830;2023-08-24T03:30:00;7.13;;;3.72;;
75760;SDS011;64373;46.136;8.830;2023-08-24T03:32:27;13.60;;;5.38;;
75760;SDS011;64373;46.136;8.830;2023-08-24T03:34:57;11.23;;;5.20;;
75760;SDS011;64373;46.136;8.830;2023-08-24T03:37:24;12.60;;;5.45;;
75760;SDS011;64373;46.136;8.830;2023-08-24T03:39:49;9.85;;;5.30;;
75760;SDS011;64373;46.136;8.830;2023-08-24T03:42:15;11.98;;;5.30;;
75760;SDS011;64373;46.136;8.830;2023-08-24T03:44:40;11.45;;;5.88;;
75760;SDS011;64373;46.136;8.830;2023-08-24T03:47:06;13.82;;;6.00;;
75760;SDS011;64373;46.136;8.830;2023-08-24T03:49:31;13.25;;;5.85;;
75760;SDS011;64373;46.136;8.830;2023-08-24T03:51:57;16.55;;;5.75;;
75760;SDS011;64373;46.136;8.830;2023-08-24T03:54:22;11.65;;;5.68;;
75760;SDS011;64373;46.136;8.830;2023-08-24T03:56:48;17.15;;;5.50;;
75760;SDS011;64373;46.136;8.830;2023-08-24T03:59:14;11.75;;;5.60;;
75760;SDS011;64373;46.136;8.830;2023-08-24T04:01:39;13.75;;;6.03;;
75760;SDS011;64373;46.136;8.830;2023-08-24T04:04:05;13.43;;;6.05;;
75760;SDS011;64373;46.136;8.830;2023-08-24T04:06:30;15.60;;;5.63;;
75760;SDS011;64373;46.136;8.830;2023-08-24T04:08:56;10.63;;;5.35;;
75760;SDS011;64373;46.136;8.830;2023-08-24T04:11:21;10.13;;;5.10;;
75760;SDS011;64373;46.136;8.830;2023-08-24T04:13:47;10.57;;;4.80;;
75760;SDS011;64373;46.136;8.830;2023-08-24T04:16:14;6.00;;;4.20;;
75760;SDS011;64373;46.136;8.830;2023-08-24T04:18:39;15.52;;;5.25;;
75760;SDS011;64373;46.136;8.830;2023-08-24T04:21:05;6.43;;;4.13;;
75760;SDS011;64373;46.136;8.830;2023-08-24T04:23:31;9.18;;;4.88;;
75760;SDS011;64373;46.136;8.830;2023-08-24T04:25:57;7.63;;;3.80;;
75760;SDS011;64373;46.136;8.830;2023-08-24T04:28:23;5.65;;;3.60;;
75760;SDS011;64373;46.136;8.830;2023-08-24T04:30:49;5.20;;;3.70;;
75760;SDS011;64373;46.136;8.830;2023-08-24T04:33:16;7.75;;;3.35;;
75760;SDS011;64373;46.136;8.830;2023-08-24T04:35:42;6.63;;;3.28;;
75760;SDS011;64373;46.136;8.830;2023-08-24T04:38:07;6.55;;;3.75;;
75760;SDS011;64373;46.136;8.830;2023-08-24T04:40:48;7.25;;;4.15;;
75760;SDS011;64373;46.136;8.830;2023-08-24T04:43:15;5.55;;;3.72;;
75760;SDS011;64373;46.136;8.830;2023-08-24T04:45:41;6.10;;;3.80;;
75760;SDS011;64373;46.136;8.830;2023-08-24T04:48:06;7.90;;;4.18;;
75760;SDS011;64373;46.136;8.830;2023-08-24T04:50:32;4.63;;;3.70;;
75760;SDS011;64373;46.136;8.830;2023-08-24T04:52:57;5.40;;;3.35;;
75760;SDS011;64373;46.136;8.830;2023-08-24T04:55:23;6.70;;;3.97;;
75760;SDS011;64373;46.136;8.830;2023-08-24T04:57:48;4.90;;;3.60;;
75760;SDS011;64373;46.136;8.830;2023-08-24T05:00:14;5.95;;;3.03;;
75760;SDS011;64373;46.136;8.830;2023-08-24T05:02:44;4.53;;;3.33;;
75760;SDS011;64373;46.136;8.830;2023-08-24T05:05:10;4.88;;;3.00;;
75760;SDS011;64373;46.136;8.830;2023-08-24T05:07:37;5.93;;;3.00;;
75760;SDS011;64373;46.136;8.830;2023-08-24T05:10:03;4.20;;;2.45;;
75760;SDS011;64373;46.136;8.830;2023-08-24T05:12:29;3.25;;;2.30;;
75760;SDS011;64373;46.136;8.830;2023-08-24T05:14:55;4.88;;;2.78;;
75760;SDS011;64373;46.136;8.830;2023-08-24T05:17:20;4.70;;;2.95;;
75760;SDS011;64373;46.136;8.830;2023-08-24T05:19:50;5.47;;;2.55;;
75760;SDS011;64373;46.136;8.830;2023-08-24T05:22:16;4.15;;;2.80;;
75760;SDS011;64373;46.136;8.830;2023-08-24T05:24:42;4.38;;;2.42;;
75760;SDS011;64373;46.136;8.830;2023-08-24T05:27:07;5.32;;;3.30;;
75760;SDS011;64373;46.136;8.830;2023-08-24T05:29:33;4.65;;;3.20;;
75760;SDS011;64373;46.136;8.830;2023-08-24T05:31:58;4.93;;;3.10;;
75760;SDS011;64373;46.136;8.830;2023-08-24T05:34:24;5.80;;;3.25;;
75760;SDS011;64373;46.136;8.830;2023-08-24T05:36:50;5.93;;;2.63;;
75760;SDS011;64373;46.136;8.830;2023-08-24T05:39:16;4.78;;;3.15;;
75760;SDS011;64373;46.136;8.830;2023-08-24T05:41:41;6.68;;;3.30;;
75760;SDS011;64373;46.136;8.830;2023-08-24T05:44:07;5.10;;;2.80;;
75760;SDS011;64373;46.136;8.830;2023-08-24T05:46:32;4.55;;;2.63;;
75760;SDS011;64373;46.136;8.830;2023-08-24T05:48:58;4.78;;;2.45;;
75760;SDS011;64373;46.136;8.830;2023-08-24T05:51:27;8.77;;;3.83;;
75760;SDS011;64373;46.136;8.830;2023-08-24T05:53:53;7.15;;;3.90;;
75760;SDS011;64373;46.136;8.830;2023-08-24T05:56:23;5.82;;;3.72;;
75760;SDS011;64373;46.136;8.830;2023-08-24T05:58:49;4.90;;;3.50;;
75760;SDS011;64373;46.136;8.830;2023-08-24T06:01:15;4.90;;;2.70;;
75760;SDS011;64373;46.136;8.830;2023-08-24T06:03:41;4.05;;;2.33;;
75760;SDS011;64373;46.136;8.830;2023-08-24T06:06:07;4.13;;;2.28;;
75760;SDS011;64373;46.136;8.830;2023-08-24T06:08:34;4.38;;;2.17;;
75760;SDS011;64373;46.136;8.830;2023-08-24T06:10:59;9.32;;;4.00;;
75760;SDS011;64373;46.136;8.830;2023-08-24T06:13:25;9.07;;;3.72;;
75760;SDS011;64373;46.136;8.830;2023-08-24T06:15:51;10.50;;;4.13;;
75760;SDS011;64373;46.136;8.830;2023-08-24T06:18:16;7.65;;;3.53;;
75760;SDS011;64373;46.136;8.830;2023-08-24T06:20:42;5.90;;;3.20;;
75760;SDS011;64373;46.136;8.830;2023-08-24T06:23:07;5.70;;;3.42;;
75760;SDS011;64373;46.136;8.830;2023-08-24T06:25:33;6.28;;;3.85;;
75760;SDS011;64373;46.136;8.830;2023-08-24T06:27:59;5.70;;;2.90;;
75760;SDS011;64373;46.136;8.830;2023-08-24T06:30:25;3.95;;;2.50;;
75760;SDS011;64373;46.136;8.830;2023-08-24T06:32:51;4.85;;;2.88;;
75760;SDS011;64373;46.136;8.830;2023-08-24T06:35:17;3.97;;;2.53;;
75760;SDS011;64373;46.136;8.830;2023-08-24T06:37:43;3.95;;;2.50;;
75760;SDS011;64373;46.136;8.830;2023-08-24T06:40:09;5.15;;;3.40;;
75760;SDS011;64373;46.136;8.830;2023-08-24T06:42:35;3.17;;;2.47;;
75760;SDS011;64373;46.136;8.830;2023-08-24T06:45:01;6.13;;;2.95;;
75760;SDS011;64373;46.136;8.830;2023-08-24T06:47:26;8.23;;;4.57;;
75760;SDS011;64373;46.136;8.830;2023-08-24T06:49:52;7.55;;;3.75;;
75760;SDS011;64373;46.136;8.830;2023-08-24T06:52:18;5.25;;;3.35;;
75760;SDS011;64373;46.136;8.830;2023-08-24T06:54:44;6.00;;;3.25;;
75760;SDS011;64373;46.136;8.830;2023-08-24T06:57:10;3.80;;;2.60;;
75760;SDS011;64373;46.136;8.830;2023-08-24T06:59:35;6.13;;;3.03;;
75760;SDS011;64373;46.136;8.830;2023-08-24T07:02:01;5.40;;;2.90;;
75760;SDS011;64373;46.136;8.830;2023-08-24T07:04:26;9.32;;;3.75;;
75760;SDS011;64373;46.136;8.830;2023-08-24T07:06:53;7.35;;;4.13;;
75760;SDS011;64373;46.136;8.830;2023-08-24T07:09:19;8.32;;;3.92;;
75760;SDS011;64373;46.136;8.830;2023-08-24T07:11:44;5.90;;;3.60;;
75760;SDS011;64373;46.136;8.830;2023-08-24T07:14:10;7.43;;;4.40;;
75760;SDS011;64373;46.136;8.830;2023-08-24T07:16:35;12.38;;;4.70;;
75760;SDS011;64373;46.136;8.830;2023-08-24T07:19:01;10.70;;;4.80;;
75760;SDS011;64373;46.136;8.830;2023-08-24T07:21:27;8.43;;;3.67;;
75760;SDS011;64373;46.136;8.830;2023-08-24T07:23:52;8.75;;;4.70;;
75760;SDS011;64373;46.136;8.830;2023-08-24T07:26:18;10.25;;;4.82;;
75760;SDS011;64373;46.136;8.830;2023-08-24T07:28:45;11.82;;;5.68;;
75760;SDS011;64373;46.136;8.830;2023-08-24T07:31:10;9.13;;;4.70;;
75760;SDS011;64373;46.136;8.830;2023-08-24T07:33:41;11.00;;;5.13;;
75760;SDS011;64373;46.136;8.830;2023-08-24T07:36:10;11.25;;;4.93;;
75760;SDS011;64373;46.136;8.830;2023-08-24T07:38:35;12.00;;;4.72;;
75760;SDS011;64373;46.136;8.830;2023-08-24T07:41:01;8.48;;;4.57;;
75760;SDS011;64373;46.136;8.830;2023-08-24T07:43:26;7.40;;;3.83;;
75760;SDS011;64373;46.136;8.830;2023-08-24T07:45:54;8.52;;;4.38;;
75760;SDS011;64373;46.136;8.830;2023-08-24T07:48:20;8.02;;;4.18;;
75760;SDS011;64373;46.136;8.830;2023-08-24T07:50:46;8.45;;;4.50;;
75760;SDS011;64373;46.136;8.830;2023-08-24T07:53:12;8.02;;;4.30;;
75760;SDS011;64373;46.136;8.830;2023-08-24T07:55:39;5.20;;;3.08;;
75760;SDS011;64373;46.136;8.830;2023-08-24T07:58:05;10.55;;;4.80;;
75760;SDS011;64373;46.136;8.830;2023-08-24T08:00:31;9.20;;;5.35;;
75760;SDS011;64373;46.136;8.830;2023-08-24T08:02:57;10.60;;;5.47;;
75760;SDS011;64373;46.136;8.830;2023-08-24T08:05:23;19.17;;;7.22;;
75760;SDS011;64373;46.136;8.830;2023-08-24T08:07:49;15.48;;;6.97;;
75760;SDS011;64373;46.136;8.830;2023-08-24T08:10:15;13.93;;;7.00;;
75760;SDS011;64373;46.136;8.830;2023-08-24T08:12:42;12.57;;;6.22;;
75760;SDS011;64373;46.136;8.830;2023-08-24T08:15:08;12.98;;;6.13;;
75760;SDS011;64373;46.136;8.830;2023-08-24T08:17:34;11.93;;;5.45;;
75760;SDS011;64373;46.136;8.830;2023-08-24T08:19:59;13.68;;;5.78;;
75760;SDS011;64373;46.136;8.830;2023-08-24T08:22:25;14.15;;;5.20;;
75760;SDS011;64373;46.136;8.830;2023-08-24T08:24:51;13.93;;;6.30;;
75760;SDS011;64373;46.136;8.830;2023-08-24T08:27:19;8.57;;;4.80;;
75760;SDS011;64373;46.136;8.830;2023-08-24T08:29:46;11.07;;;5.57;;
75760;SDS011;64373;46.136;8.830;2023-08-24T08:32:12;8.20;;;4.45;;
75760;SDS011;64373;46.136;8.830;2023-08-24T08:34:37;7.13;;;3.58;;
75760;SDS011;64373;46.136;8.830;2023-08-24T08:37:03;6.45;;;3.70;;
75760;SDS011;64373;46.136;8.830;2023-08-24T08:39:29;6.68;;;3.38;;
75760;SDS011;64373;46.136;8.830;2023-08-24T08:41:55;6.07;;;3.20;;
75760;SDS011;64373;46.136;8.830;2023-08-24T08:44:21;6.93;;;3.20;;
75760;SDS011;64373;46.136;8.830;2023-08-24T08:46:48;7.80;;;3.90;;
75760;SDS011;64373;46.136;8.830;2023-08-24T08:49:15;11.98;;;5.38;;
75760;SDS011;64373;46.136;8.830;2023-08-24T08:51:41;9.90;;;4.40;;
75760;SDS011;64373;46.136;8.830;2023-08-24T08:54:07;9.88;;;5.20;;
75760;SDS011;64373;46.136;8.830;2023-08-24T08:56:33;10.75;;;5.90;;
75760;SDS011;64373;46.136;8.830;2023-08-24T08:58:59;13.52;;;5.90;;
75760;SDS011;64373;46.136;8.830;2023-08-24T09:01:26;16.30;;;7.10;;
75760;SDS011;64373;46.136;8.830;2023-08-24T09:03:52;12.48;;;6.05;;
75760;SDS011;64373;46.136;8.830;2023-08-24T09:06:20;15.68;;;7.50;;
75760;SDS011;64373;46.136;8.830;2023-08-24T09:08:46;14.93;;;7.10;;
75760;SDS011;64373;46.136;8.830;2023-08-24T09:11:14;12.25;;;6.63;;
75760;SDS011;64373;46.136;8.830;2023-08-24T09:13:42;14.02;;;7.88;;
75760;SDS011;64373;46.136;8.830;2023-08-24T09:16:08;15.65;;;7.20;;
75760;SDS011;64373;46.136;8.830;2023-08-24T09:18:39;12.07;;;6.15;;
75760;SDS011;64373;46.136;8.830;2023-08-24T09:21:09;12.18;;;5.47;;
75760;SDS011;64373;46.136;8.830;2023-08-24T09:23:45;12.63;;;5.43;;
75760;SDS011;64373;46.136;8.830;2023-08-24T09:26:36;9.52;;;5.03;;
75760;SDS011;64373;46.136;8.830;2023-08-24T09:29:11;9.77;;;4.80;;
75760;SDS011;64373;46.136;8.830;2023-08-24T09:31:38;8.38;;;4.00;;
75760;SDS011;64373;46.136;8.830;2023-08-24T09:34:04;7.30;;;3.40;;
75760;SDS011;64373;46.136;8.830;2023-08-24T09:36:40;8.25;;;3.25;;
75760;SDS011;64373;46.136;8.830;2023-08-24T09:39:07;4.05;;;2.67;;
75760;SDS011;64373;46.136;8.830;2023-08-24T09:44:05;11.40;;;5.95;;
75760;SDS011;64373;46.136;8.830;2023-08-24T09:46:36;11.75;;;6.13;;
75760;SDS011;64373;46.136;8.830;2023-08-24T09:49:46;10.05;;;4.22;;
75760;SDS011;64373;46.136;8.830;2023-08-24T09:52:13;8.35;;;5.22;;
75760;SDS011;64373;46.136;8.830;2023-08-24T09:54:53;13.88;;;6.10;;
75760;SDS011;64373;46.136;8.830;2023-08-24T09:57:21;11.52;;;5.60;;
75760;SDS011;64373;46.136;8.830;2023-08-24T09:59:47;11.63;;;6.10;;
75760;SDS011;64373;46.136;8.830;2023-08-24T10:02:15;11.23;;;5.40;;
75760;SDS011;64373;46.136;8.830;2023-08-24T10:04:44;9.95;;;4.40;;
75760;SDS011;64373;46.136;8.830;2023-08-24T10:07:15;7.93;;;4.28;;
75760;SDS011;64373;46.136;8.830;2023-08-24T10:09:53;12.65;;;5.03;;
75760;SDS011;64373;46.136;8.830;2023-08-24T10:12:26;12.60;;;5.53;;
75760;SDS011;64373;46.136;8.830;2023-08-24T10:15:00;10.05;;;5.07;;
75760;SDS011;64373;46.136;8.830;2023-08-24T10:17:32;12.57;;;5.10;;
75760;SDS011;64373;46.136;8.830;2023-08-24T10:20:01;13.77;;;5.18;;
75760;SDS011;64373;46.136;8.830;2023-08-24T10:22:30;16.63;;;5.55;;
75760;SDS011;64373;46.136;8.830;2023-08-24T10:24:57;14.63;;;5.10;;
75760;SDS011;64373;46.136;8.830;2023-08-24T10:27:23;8.27;;;4.90;;
75760;SDS011;64373;46.136;8.830;2023-08-24T10:29:51;16.00;;;5.00;;
75760;SDS011;64373;46.136;8.830;2023-08-24T10:32:18;9.55;;;4.55;;
75760;SDS011;64373;46.136;8.830;2023-08-24T10:34:45;13.15;;;4.70;;
75760;SDS011;64373;46.136;8.830;2023-08-24T10:37:10;9.80;;;4.20;;
75760;SDS011;64373;46.136;8.830;2023-08-24T10:39:43;11.52;;;4.32;;
75760;SDS011;64373;46.136;8.830;2023-08-24T10:42:11;14.93;;;4.93;;
75760;SDS011;64373;46.136;8.830;2023-08-24T10:44:37;8.35;;;4.20;;
75760;SDS011;64373;46.136;8.830;2023-08-24T10:47:23;8.32;;;3.95;;
75760;SDS011;64373;46.136;8.830;2023-08-24T10:55:00;9.00;;;4.07;;
75760;SDS011;64373;46.136;8.830;2023-08-24T10:57:27;11.77;;;4.15;;
75760;SDS011;64373;46.136;8.830;2023-08-24T11:02:52;5.35;;;3.58;;
75760;SDS011;64373;46.136;8.830;2023-08-24T11:05:18;6.93;;;3.67;;
75760;SDS011;64373;46.136;8.830;2023-08-24T11:10:31;7.38;;;4.18;;
75760;SDS011;64373;46.136;8.830;2023-08-24T11:13:20;9.38;;;4.45;;
75760;SDS011;64373;46.136;8.830;2023-08-24T11:18:20;12.25;;;5.63;;
75760;SDS011;64373;46.136;8.830;2023-08-24T11:21:03;10.02;;;4.82;;
75760;SDS011;64373;46.136;8.830;2023-08-24T11:23:30;10.45;;;4.80;;
75760;SDS011;64373;46.136;8.830;2023-08-24T11:25:57;12.90;;;4.75;;
75760;SDS011;64373;46.136;8.830;2023-08-24T11:28:24;10.77;;;4.90;;
75760;SDS011;64373;46.136;8.830;2023-08-24T11:30:52;9.45;;;4.78;;
75760;SDS011;64373;46.136;8.830;2023-08-24T11:33:31;9.88;;;5.38;;
75760;SDS011;64373;46.136;8.830;2023-08-24T11:35:58;5.65;;;4.35;;
75760;SDS011;64373;46.136;8.830;2023-08-24T11:38:24;8.52;;;4.70;;
75760;SDS011;64373;46.136;8.830;2023-08-24T11:40:50;7.13;;;4.47;;
75760;SDS011;64373;46.136;8.830;2023-08-24T11:43:25;8.00;;;3.83;;
75760;SDS011;64373;46.136;8.830;2023-08-24T11:45:53;6.55;;;4.00;;
75760;SDS011;64373;46.136;8.830;2023-08-24T11:48:26;6.90;;;4.50;;
75760;SDS011;64373;46.136;8.830;2023-08-24T11:50:54;8.02;;;4.70;;
75760;SDS011;64373;46.136;8.830;2023-08-24T11:53:20;9.13;;;5.05;;
75760;SDS011;64373;46.136;8.830;2023-08-24T11:55:48;9.45;;;5.25;;
75760;SDS011;64373;46.136;8.830;2023-08-24T11:58:16;8.82;;;6.00;;
75760;SDS011;64373;46.136;8.830;2023-08-24T12:00:42;8.15;;;5.25;;
75760;SDS011;64373;46.136;8.830;2023-08-24T12:03:08;6.95;;;4.80;;
75760;SDS011;64373;46.136;8.830;2023-08-24T12:05:34;7.85;;;5.40;;
75760;SDS011;64373;46.136;8.830;2023-08-24T12:08:01;12.27;;;6.38;;
75760;SDS011;64373;46.136;8.830;2023-08-24T12:10:26;14.98;;;6.38;;
75760;SDS011;64373;46.136;8.830;2023-08-24T12:13:13;9.38;;;6.13;;
75760;SDS011;64373;46.136;8.830;2023-08-24T12:15:38;12.18;;;6.82;;
75760;SDS011;64373;46.136;8.830;2023-08-24T12:18:12;11.82;;;6.22;;
75760;SDS011;64373;46.136;8.830;2023-08-24T12:20:39;9.32;;;6.03;;
75760;SDS011;64373;46.136;8.830;2023-08-24T12:23:05;12.23;;;6.63;;
75760;SDS011;64373;46.136;8.830;2023-08-24T12:25:35;9.50;;;6.45;;
75760;SDS011;64373;46.136;8.830;2023-08-24T12:28:08;12.25;;;6.22;;
75760;SDS011;64373;46.136;8.830;2023-08-24T12:30:47;9.52;;;6.07;;
75760;SDS011;64373;46.136;8.830;2023-08-24T12:33:59;11.13;;;6.40;;
75760;SDS011;64373;46.136;8.830;2023-08-24T12:36:06;13.75;;;6.70;;
75760;SDS011;64373;46.136;8.830;2023-08-24T12:38:31;11.10;;;6.82;;
75760;SDS011;64373;46.136;8.830;2023-08-24T12:40:57;9.57;;;7.03;;
75760;SDS011;64373;46.136;8.830;2023-08-24T12:43:22;9.88;;;6.82;;
75760;SDS011;64373;46.136;8.830;2023-08-24T12:45:48;10.05;;;7.22;;
75760;SDS011;64373;46.136;8.830;2023-08-24T12:48:14;13.30;;;8.13;;
75760;SDS011;64373;46.136;8.830;2023-08-24T12:50:39;10.07;;;6.40;;
75760;SDS011;64373;46.136;8.830;2023-08-24T12:53:05;13.27;;;7.30;;
75760;SDS011;64373;46.136;8.830;2023-08-24T12:55:35;10.20;;;6.60;;
75760;SDS011;64373;46.136;8.830;2023-08-24T12:58:01;9.70;;;7.22;;
75760;SDS011;64373;46.136;8.830;2023-08-24T13:00:27;9.98;;;7.70;;
75760;SDS011;64373;46.136;8.830;2023-08-24T13:02:53;8.43;;;6.55;;
75760;SDS011;64373;46.136;8.830;2023-08-24T13:05:18;7.55;;;6.72;;
75760;SDS011;64373;46.136;8.830;2023-08-24T13:07:44;14.57;;;7.93;;
75760;SDS011;64373;46.136;8.830;2023-08-24T13:10:09;11.90;;;7.93;;
75760;SDS011;64373;46.136;8.830;2023-08-24T13:12:35;12.40;;;7.47;;
75760;SDS011;64373;46.136;8.830;2023-08-24T13:15:01;9.25;;;7.13;;
75760;SDS011;64373;46.136;8.830;2023-08-24T13:17:27;10.40;;;7.72;;
75760;SDS011;64373;46.136;8.830;2023-08-24T13:19:54;9.95;;;7.80;;
75760;SDS011;64373;46.136;8.830;2023-08-24T13:22:20;11.85;;;7.50;;
75760;SDS011;64373;46.136;8.830;2023-08-24T13:24:45;12.18;;;7.13;;
75760;SDS011;64373;46.136;8.830;2023-08-24T13:27:11;9.05;;;7.50;;
75760;SDS011;64373;46.136;8.830;2023-08-24T13:29:37;11.40;;;6.88;;
75760;SDS011;64373;46.136;8.830;2023-08-24T13:32:03;8.85;;;6.82;;
75760;SDS011;64373;46.136;8.830;2023-08-24T13:34:29;8.98;;;5.93;;
75760;SDS011;64373;46.136;8.830;2023-08-24T13:36:56;5.97;;;5.00;;
75760;SDS011;64373;46.136;8.830;2023-08-24T13:39:23;5.00;;;4.50;;
75760;SDS011;64373;46.136;8.830;2023-08-24T13:41:50;4.57;;;4.18;;
75760;SDS011;64373;46.136;8.830;2023-08-24T13:44:16;4.45;;;4.05;;
75760;SDS011;64373;46.136;8.830;2023-08-24T13:46:41;5.07;;;4.25;;
75760;SDS011;64373;46.136;8.830;2023-08-24T13:49:07;4.88;;;3.75;;
75760;SDS011;64373;46.136;8.830;2023-08-24T13:51:33;7.18;;;6.20;;
75760;SDS011;64373;46.136;8.830;2023-08-24T13:53:59;8.07;;;6.28;;
75760;SDS011;64373;46.136;8.830;2023-08-24T13:56:25;7.03;;;6.20;;
75760;SDS011;64373;46.136;8.830;2023-08-24T13:58:50;8.88;;;6.90;;
75760;SDS011;64373;46.136;8.830;2023-08-24T14:01:16;7.05;;;6.35;;
75760;SDS011;64373;46.136;8.830;2023-08-24T14:03:41;7.85;;;6.43;;
75760;SDS011;64373;46.136;8.830;2023-08-24T14:06:08;8.45;;;6.50;;
75760;SDS011;64373;46.136;8.830;2023-08-24T14:08:36;9.45;;;7.30;;
75760;SDS011;64373;46.136;8.830;2023-08-24T14:13:49;8.35;;;6.82;;
75760;SDS011;64373;46.136;8.830;2023-08-24T14:16:14;7.80;;;5.88;;
75760;SDS011;64373;46.136;8.830;2023-08-24T14:18:40;8.02;;;6.30;;
75760;SDS011;64373;46.136;8.830;2023-08-24T14:21:06;6.05;;;5.45;;
75760;SDS011;64373;46.136;8.830;2023-08-24T14:23:32;6.45;;;5.50;;
75760;SDS011;64373;46.136;8.830;2023-08-24T14:25:57;6.05;;;4.75;;
75760;SDS011;64373;46.136;8.830;2023-08-24T14:28:23;5.25;;;4.75;;
75760;SDS011;64373;46.136;8.830;2023-08-24T14:30:51;6.70;;;4.32;;
75760;SDS011;64373;46.136;8.830;2023-08-24T14:33:17;5.55;;;4.72;;
75760;SDS011;64373;46.136;8.830;2023-08-24T14:35:53;4.70;;;4.15;;
75760;SDS011;64373;46.136;8.830;2023-08-24T14:38:20;8.15;;;4.93;;
75760;SDS011;64373;46.136;8.830;2023-08-24T14:40:50;11.18;;;7.35;;
75760;SDS011;64373;46.136;8.830;2023-08-24T14:43:16;6.68;;;5.60;;
75760;SDS011;64373;46.136;8.830;2023-08-24T14:45:41;7.05;;;5.20;;
75760;SDS011;64373;46.136;8.830;2023-08-24T14:48:07;10.60;;;7.38;;
75760;SDS011;64373;46.136;8.830;2023-08-24T14:50:33;13.07;;;8.13;;
75760;SDS011;64373;46.136;8.830;2023-08-24T14:52:58;8.75;;;7.65;;
75760;SDS011;64373;46.136;8.830;2023-08-24T14:55:24;9.18;;;7.13;;
75760;SDS011;64373;46.136;8.830;2023-08-24T14:57:54;11.93;;;7.88;;
75760;SDS011;64373;46.136;8.830;2023-08-24T15:00:40;8.65;;;7.40;;
75760;SDS011;64373;46.136;8.830;2023-08-24T15:03:46;9.77;;;6.20;;
75760;SDS011;64373;46.136;8.830;2023-08-24T15:06:31;7.55;;;6.40;;
75760;SDS011;64373;46.136;8.830;2023-08-24T15:09:31;7.65;;;6.13;;